BLF Airport (Mercer County) Information

FAA: BLF - ICAO: KBLF

BLF Airport Location

State West Virginia
County Mercer
City Bluefield
BLF Airport is 3 miles northeast of Bluefield, WV.
Latitude 37-17-45.4141N
Longitude 081-12-27.0679W
Elevation 2,856ft

KBLF Airport METARs

METAR KBLF 281252Z AUTO 14009G15KT 10SM FEW018 11/07 A2984 RMK AO2 SLP098 T01060072
Altimeter 29.84"
Temperature 10.6°C (51.1°F)
Wind 140° at 9KT with gusts to 15KT
Clouds few at 1,800ft
Visibility 10.0mi
Time observed: 2021-10-28T12:52:00Z

BLF Airport Details

Status Operational
Activation May 1954
Ownership Public
Usage Public
Chart CINCINNATI
ATC on-site No
Beacon schedule sunset-sunrise
Beacon color clear green

BLF Airport Contacts

Owner MERCER CO ARPT AUTH INC
Owner address 300 MARKELL DR. STE 200, BLUEFIELD, WV 24701
Owner phone 304-327-5308
Manager N/A
Manager address N/A, N/A
Manager phone N/A

BLF Airport (Mercer County) Radio Frequencies

BLF (Airport) Radio Frequencies

UNICOM N/A
Common traffic advisory frequency (CTAF) 122.9